sensor_id;sensor_type;location;lat;lon;timestamp;temperature;humidity
3548;DHT22;1788;49.400;11.092;2024-02-15T00:01:20;12.00;72.90
3548;DHT22;1788;49.400;11.092;2024-02-15T00:03:47;12.00;72.90
3548;DHT22;1788;49.400;11.092;2024-02-15T00:06:13;12.00;72.90
3548;DHT22;1788;49.400;11.092;2024-02-15T00:08:40;12.00;72.90
3548;DHT22;1788;49.400;11.092;2024-02-15T00:11:06;12.00;73.10
3548;DHT22;1788;49.400;11.092;2024-02-15T00:13:35;11.90;72.90
3548;DHT22;1788;49.400;11.092;2024-02-15T00:16:01;11.90;72.90
3548;DHT22;1788;49.400;11.092;2024-02-15T00:18:28;11.90;73.00
3548;DHT22;1788;49.400;11.092;2024-02-15T00:20:54;11.90;73.00
3548;DHT22;1788;49.400;11.092;2024-02-15T00:23:21;11.90;73.00
3548;DHT22;1788;49.400;11.092;2024-02-15T00:25:48;11.90;73.20
3548;DHT22;1788;49.400;11.092;2024-02-15T00:28:15;11.90;73.20
3548;DHT22;1788;49.400;11.092;2024-02-15T00:30:42;11.90;73.30
3548;DHT22;1788;49.400;11.092;2024-02-15T00:33:09;11.90;73.20
3548;DHT22;1788;49.400;11.092;2024-02-15T00:35:36;11.90;73.30
3548;DHT22;1788;49.400;11.092;2024-02-15T00:38:02;11.90;73.30
3548;DHT22;1788;49.400;11.092;2024-02-15T00:40:29;11.90;73.30
3548;DHT22;1788;49.400;11.092;2024-02-15T00:42:55;11.90;73.30
3548;DHT22;1788;49.400;11.092;2024-02-15T00:45:22;11.90;73.40
3548;DHT22;1788;49.400;11.092;2024-02-15T00:47:49;11.90;73.30
3548;DHT22;1788;49.400;11.092;2024-02-15T00:50:15;11.90;73.40
3548;DHT22;1788;49.400;11.092;2024-02-15T00:52:43;11.90;73.70
3548;DHT22;1788;49.400;11.092;2024-02-15T00:55:09;11.80;73.50
3548;DHT22;1788;49.400;11.092;2024-02-15T00:57:36;11.90;73.70
3548;DHT22;1788;49.400;11.092;2024-02-15T01:00:03;11.90;73.80
3548;DHT22;1788;49.400;11.092;2024-02-15T01:02:29;11.90;73.70
3548;DHT22;1788;49.400;11.092;2024-02-15T01:04:56;11.90;73.70
3548;DHT22;1788;49.400;11.092;2024-02-15T01:07:22;11.90;73.70
3548;DHT22;1788;49.400;11.092;2024-02-15T01:09:49;11.90;73.60
3548;DHT22;1788;49.400;11.092;2024-02-15T01:12:16;12.00;73.80
3548;DHT22;1788;49.400;11.092;2024-02-15T01:14:43;12.00;73.70
3548;DHT22;1788;49.400;11.092;2024-02-15T01:17:10;12.00;73.70
3548;DHT22;1788;49.400;11.092;2024-02-15T01:19:36;12.00;73.70
3548;DHT22;1788;49.400;11.092;2024-02-15T01:22:03;12.00;73.50
3548;DHT22;1788;49.400;11.092;2024-02-15T01:24:29;12.00;73.50
3548;DHT22;1788;49.400;11.092;2024-02-15T01:26:57;12.10;73.70
3548;DHT22;1788;49.400;11.092;2024-02-15T01:29:23;12.00;73.50
3548;DHT22;1788;49.400;11.092;2024-02-15T01:31:50;12.00;73.50
3548;DHT22;1788;49.400;11.092;2024-02-15T01:34:17;12.10;73.70
3548;DHT22;1788;49.400;11.092;2024-02-15T01:36:43;12.10;73.60
3548;DHT22;1788;49.400;11.092;2024-02-15T01:39:10;12.00;73.50
3548;DHT22;1788;49.400;11.092;2024-02-15T01:41:36;12.00;73.60
3548;DHT22;1788;49.400;11.092;2024-02-15T01:44:04;12.00;73.50
3548;DHT22;1788;49.400;11.092;2024-02-15T01:46:30;12.00;73.60
3548;DHT22;1788;49.400;11.092;2024-02-15T01:48:57;12.00;73.60
3548;DHT22;1788;49.400;11.092;2024-02-15T01:51:23;11.90;73.60
3548;DHT22;1788;49.400;11.092;2024-02-15T01:53:50;12.00;73.80
3548;DHT22;1788;49.400;11.092;2024-02-15T01:56:17;11.90;73.70
3548;DHT22;1788;49.400;11.092;2024-02-15T01:58:43;11.90;73.70
3548;DHT22;1788;49.400;11.092;2024-02-15T02:01:10;11.90;73.80
3548;DHT22;1788;49.400;11.092;2024-02-15T02:03:36;11.90;73.80
3548;DHT22;1788;49.400;11.092;2024-02-15T02:06:03;11.90;73.80
3548;DHT22;1788;49.400;11.092;2024-02-15T02:08:30;11.90;73.80
3548;DHT22;1788;49.400;11.092;2024-02-15T02:10:56;11.90;73.80
3548;DHT22;1788;49.400;11.092;2024-02-15T02:13:23;11.90;73.70
3548;DHT22;1788;49.400;11.092;2024-02-15T02:15:50;11.90;73.70
3548;DHT22;1788;49.400;11.092;2024-02-15T02:18:17;11.90;73.70
3548;DHT22;1788;49.400;11.092;2024-02-15T02:20:44;11.90;73.70
3548;DHT22;1788;49.400;11.092;2024-02-15T02:25:37;11.90;73.70
3548;DHT22;1788;49.400;11.092;2024-02-15T02:28:03;11.90;73.80
3548;DHT22;1788;49.400;11.092;2024-02-15T02:30:30;11.90;73.90
3548;DHT22;1788;49.400;11.092;2024-02-15T02:32:57;11.80;73.90
3548;DHT22;1788;49.400;11.092;2024-02-15T02:35:24;11.90;74.00
3548;DHT22;1788;49.400;11.092;2024-02-15T02:37:51;11.90;74.00
3548;DHT22;1788;49.400;11.092;2024-02-15T02:40:17;11.90;74.00
3548;DHT22;1788;49.400;11.092;2024-02-15T02:45:11;11.90;73.90
3548;DHT22;1788;49.400;11.092;2024-02-15T02:47:38;11.90;73.90
3548;DHT22;1788;49.400;11.092;2024-02-15T02:50:05;11.90;73.80
3548;DHT22;1788;49.400;11.092;2024-02-15T02:52:32;11.90;73.80
3548;DHT22;1788;49.400;11.092;2024-02-15T02:54:59;12.00;73.80
3548;DHT22;1788;49.400;11.092;2024-02-15T02:57:26;12.00;73.90
3548;DHT22;1788;49.400;11.092;2024-02-15T02:59:53;12.00;73.80
3548;DHT22;1788;49.400;11.092;2024-02-15T03:02:20;12.00;73.80
3548;DHT22;1788;49.400;11.092;2024-02-15T03:04:46;12.00;73.80
3548;DHT22;1788;49.400;11.092;2024-02-15T03:07:13;12.00;73.80
3548;DHT22;1788;49.400;11.092;2024-02-15T03:09:40;12.00;73.70
3548;DHT22;1788;49.400;11.092;2024-02-15T03:12:06;12.00;73.70
3548;DHT22;1788;49.400;11.092;2024-02-15T03:14:34;12.00;73.80
3548;DHT22;1788;49.400;11.092;2024-02-15T03:17:00;12.00;73.80
3548;DHT22;1788;49.400;11.092;2024-02-15T03:19:28;12.10;73.90
3548;DHT22;1788;49.400;11.092;2024-02-15T03:21:54;12.00;73.70
3548;DHT22;1788;49.400;11.092;2024-02-15T03:24:21;12.10;73.80
3548;DHT22;1788;49.400;11.092;2024-02-15T03:26:48;12.10;73.70
3548;DHT22;1788;49.400;11.092;2024-02-15T03:29:14;12.10;73.70
3548;DHT22;1788;49.400;11.092;2024-02-15T03:31:41;12.10;73.70
3548;DHT22;1788;49.400;11.092;2024-02-15T03:34:07;12.10;73.80
3548;DHT22;1788;49.400;11.092;2024-02-15T03:36:34;12.10;73.80
3548;DHT22;1788;49.400;11.092;2024-02-15T03:39:02;12.00;73.90
3548;DHT22;1788;49.400;11.092;2024-02-15T03:41:28;12.10;73.70
3548;DHT22;1788;49.400;11.092;2024-02-15T03:43:55;12.10;73.80
3548;DHT22;1788;49.400;11.092;2024-02-15T03:46:21;12.10;73.80
3548;DHT22;1788;49.400;11.092;2024-02-15T03:48:48;12.10;73.70
3548;DHT22;1788;49.400;11.092;2024-02-15T03:53:42;12.00;73.60
3548;DHT22;1788;49.400;11.092;2024-02-15T03:56:08;12.00;73.60
3548;DHT22;1788;49.400;11.092;2024-02-15T03:58:37;12.00;73.70
3548;DHT22;1788;49.400;11.092;2024-02-15T04:01:03;12.00;73.70
3548;DHT22;1788;49.400;11.092;2024-02-15T04:03:29;12.00;73.70
3548;DHT22;1788;49.400;11.092;2024-02-15T04:05:56;12.00;73.70
3548;DHT22;1788;49.400;11.092;2024-02-15T04:08:22;12.10;73.80
3548;DHT22;1788;49.400;11.092;2024-02-15T04:10:50;12.10;73.70
3548;DHT22;1788;49.400;11.092;2024-02-15T04:13:16;12.00;73.60
3548;DHT22;1788;49.400;11.092;2024-02-15T04:15:44;12.10;74.40
3548;DHT22;1788;49.400;11.092;2024-02-15T04:18:10;12.00;73.40
3548;DHT22;1788;49.400;11.092;2024-02-15T04:20:37;12.00;73.40
3548;DHT22;1788;49.400;11.092;2024-02-15T04:23:04;12.00;73.30
3548;DHT22;1788;49.400;11.092;2024-02-15T04:25:30;12.00;73.30
3548;DHT22;1788;49.400;11.092;2024-02-15T04:27:58;11.90;73.30
3548;DHT22;1788;49.400;11.092;2024-02-15T04:30:24;11.90;73.30
3548;DHT22;1788;49.400;11.092;2024-02-15T04:32:52;11.90;73.20
3548;DHT22;1788;49.400;11.092;2024-02-15T04:35:19;11.80;73.10
3548;DHT22;1788;49.400;11.092;2024-02-15T04:37:46;11.80;73.00
3548;DHT22;1788;49.400;11.092;2024-02-15T04:40:13;11.80;73.00
3548;DHT22;1788;49.400;11.092;2024-02-15T04:42:39;11.80;72.90
3548;DHT22;1788;49.400;11.092;2024-02-15T04:45:06;11.70;72.80
3548;DHT22;1788;49.400;11.092;2024-02-15T04:47:32;11.70;72.70
3548;DHT22;1788;49.400;11.092;2024-02-15T04:49:59;11.60;72.50
3548;DHT22;1788;49.400;11.092;2024-02-15T04:52:26;11.60;72.50
3548;DHT22;1788;49.400;11.092;2024-02-15T04:54:52;11.60;72.40
3548;DHT22;1788;49.400;11.092;2024-02-15T04:57:20;11.50;72.20
3548;DHT22;1788;49.400;11.092;2024-02-15T04:59:46;11.50;72.20
3548;DHT22;1788;49.400;11.092;2024-02-15T05:02:13;11.40;72.10
3548;DHT22;1788;49.400;11.092;2024-02-15T05:04:39;11.40;72.10
3548;DHT22;1788;49.400;11.092;2024-02-15T05:07:08;11.40;72.20
3548;DHT22;1788;49.400;11.092;2024-02-15T05:09:34;11.30;72.00
3548;DHT22;1788;49.400;11.092;2024-02-15T05:12:01;11.30;72.00
3548;DHT22;1788;49.400;11.092;2024-02-15T05:14:28;11.30;72.00
3548;DHT22;1788;49.400;11.092;2024-02-15T05:16:54;11.30;72.10
3548;DHT22;1788;49.400;11.092;2024-02-15T05:19:21;11.30;72.20
3548;DHT22;1788;49.400;11.092;2024-02-15T05:21:48;11.20;72.10
3548;DHT22;1788;49.400;11.092;2024-02-15T05:24:16;11.30;72.10
3548;DHT22;1788;49.400;11.092;2024-02-15T05:26:43;11.30;72.20
3548;DHT22;1788;49.400;11.092;2024-02-15T05:29:10;11.30;72.20
3548;DHT22;1788;49.400;11.092;2024-02-15T05:31:37;11.30;72.40
3548;DHT22;1788;49.400;11.092;2024-02-15T05:34:05;11.30;72.40
3548;DHT22;1788;49.400;11.092;2024-02-15T05:36:31;11.30;72.40
3548;DHT22;1788;49.400;11.092;2024-02-15T05:38:58;11.30;72.40
3548;DHT22;1788;49.400;11.092;2024-02-15T05:41:25;11.30;72.40
3548;DHT22;1788;49.400;11.092;2024-02-15T05:43:51;11.30;72.50
3548;DHT22;1788;49.400;11.092;2024-02-15T05:46:18;11.30;72.40
3548;DHT22;1788;49.400;11.092;2024-02-15T05:48:45;11.40;72.60
3548;DHT22;1788;49.400;11.092;2024-02-15T05:51:11;11.40;72.60
3548;DHT22;1788;49.400;11.092;2024-02-15T05:53:38;11.40;72.60
3548;DHT22;1788;49.400;11.092;2024-02-15T05:56:07;11.40;72.60
3548;DHT22;1788;49.400;11.092;2024-02-15T05:58:33;11.40;72.60
3548;DHT22;1788;49.400;11.092;2024-02-15T06:01:01;11.50;72.70
3548;DHT22;1788;49.400;11.092;2024-02-15T06:05:56;11.50;72.70
3548;DHT22;1788;49.400;11.092;2024-02-15T06:08:23;11.50;72.70
3548;DHT22;1788;49.400;11.092;2024-02-15T06:10:51;11.50;72.80
3548;DHT22;1788;49.400;11.092;2024-02-15T06:13:17;11.50;72.90
3548;DHT22;1788;49.400;11.092;2024-02-15T06:15:44;11.50;72.90
3548;DHT22;1788;49.400;11.092;2024-02-15T06:20:37;11.60;73.00
3548;DHT22;1788;49.400;11.092;2024-02-15T06:23:04;11.60;73.00
3548;DHT22;1788;49.400;11.092;2024-02-15T06:27:57;11.60;73.10
3548;DHT22;1788;49.400;11.092;2024-02-15T06:30:24;11.60;73.20
3548;DHT22;1788;49.400;11.092;2024-02-15T06:32:52;11.60;73.30
3548;DHT22;1788;49.400;11.092;2024-02-15T06:35:19;11.60;73.20
3548;DHT22;1788;49.400;11.092;2024-02-15T06:37:45;11.60;73.30
3548;DHT22;1788;49.400;11.092;2024-02-15T06:40:12;11.60;73.30
3548;DHT22;1788;49.400;11.092;2024-02-15T06:42:39;11.60;73.30
3548;DHT22;1788;49.400;11.092;2024-02-15T06:45:06;11.60;73.30
3548;DHT22;1788;49.400;11.092;2024-02-15T06:47:33;11.60;73.30
3548;DHT22;1788;49.400;11.092;2024-02-15T06:50:00;11.60;73.30
3548;DHT22;1788;49.400;11.092;2024-02-15T06:52:27;11.60;73.30
3548;DHT22;1788;49.400;11.092;2024-02-15T06:54:54;11.60;74.30
3548;DHT22;1788;49.400;11.092;2024-02-15T06:57:21;11.60;73.30
3548;DHT22;1788;49.400;11.092;2024-02-15T06:59:48;11.70;73.40
3548;DHT22;1788;49.400;11.092;2024-02-15T07:02:14;11.70;73.40
3548;DHT22;1788;49.400;11.092;2024-02-15T07:04:41;11.70;73.40
3548;DHT22;1788;49.400;11.092;2024-02-15T07:07:07;11.70;73.40
3548;DHT22;1788;49.400;11.092;2024-02-15T07:09:34;11.70;73.40
3548;DHT22;1788;49.400;11.092;2024-02-15T07:12:01;11.70;73.40
3548;DHT22;1788;49.400;11.092;2024-02-15T07:14:28;11.70;73.40
3548;DHT22;1788;49.400;11.092;2024-02-15T07:16:54;11.70;73.40
3548;DHT22;1788;49.400;11.092;2024-02-15T07:19:22;11.80;73.50
3548;DHT22;1788;49.400;11.092;2024-02-15T07:21:48;11.70;73.40
3548;DHT22;1788;49.400;11.092;2024-02-15T07:24:15;11.80;73.50
3548;DHT22;1788;49.400;11.092;2024-02-15T07:26:41;11.80;73.40
3548;DHT22;1788;49.400;11.092;2024-02-15T07:29:08;11.80;73.40
3548;DHT22;1788;49.400;11.092;2024-02-15T07:31:35;11.90;73.50
3548;DHT22;1788;49.400;11.092;2024-02-15T07:34:02;11.90;73.50
3548;DHT22;1788;49.400;11.092;2024-02-15T07:36:28;11.90;73.50
3548;DHT22;1788;49.400;11.092;2024-02-15T07:38:55;11.90;73.40
3548;DHT22;1788;49.400;11.092;2024-02-15T07:41:22;11.90;73.40
3548;DHT22;1788;49.400;11.092;2024-02-15T07:43:48;12.00;73.50
3548;DHT22;1788;49.400;11.092;2024-02-15T07:46:15;12.00;73.50
3548;DHT22;1788;49.400;11.092;2024-02-15T07:48:42;12.00;73.40
3548;DHT22;1788;49.400;11.092;2024-02-15T07:51:08;12.00;73.40
3548;DHT22;1788;49.400;11.092;2024-02-15T07:53:36;12.10;73.50
3548;DHT22;1788;49.400;11.092;2024-02-15T07:56:03;12.00;73.40
3548;DHT22;1788;49.400;11.092;2024-02-15T07:58:30;12.10;73.50
3548;DHT22;1788;49.400;11.092;2024-02-15T08:00:57;12.20;73.40
3548;DHT22;1788;49.400;11.092;2024-02-15T08:03:24;12.20;73.40
3548;DHT22;1788;49.400;11.092;2024-02-15T08:05:51;12.20;74.10
3548;DHT22;1788;49.400;11.092;2024-02-15T08:08:18;12.20;73.30
3548;DHT22;1788;49.400;11.092;2024-02-15T08:10:45;12.20;73.40
3548;DHT22;1788;49.400;11.092;2024-02-15T08:13:12;12.20;73.40
3548;DHT22;1788;49.400;11.092;2024-02-15T08:15:39;12.30;73.40
3548;DHT22;1788;49.400;11.092;2024-02-15T08:18:06;12.30;73.40
3548;DHT22;1788;49.400;11.092;2024-02-15T08:20:33;12.30;73.40
3548;DHT22;1788;49.400;11.092;2024-02-15T08:23:00;12.30;73.40
3548;DHT22;1788;49.400;11.092;2024-02-15T08:25:27;12.40;73.50
3548;DHT22;1788;49.400;11.092;2024-02-15T08:27:56;12.40;73.40
3548;DHT22;1788;49.400;11.092;2024-02-15T08:30:23;12.40;73.30
3548;DHT22;1788;49.400;11.092;2024-02-15T08:32:50;12.40;73.30
3548;DHT22;1788;49.400;11.092;2024-02-15T08:35:17;12.40;73.30
3548;DHT22;1788;49.400;11.092;2024-02-15T08:37:44;12.40;73.30
3548;DHT22;1788;49.400;11.092;2024-02-15T08:40:11;12.40;73.20
3548;DHT22;1788;49.400;11.092;2024-02-15T08:45:06;12.40;73.20
3548;DHT22;1788;49.400;11.092;2024-02-15T08:47:33;12.40;73.20
3548;DHT22;1788;49.400;11.092;2024-02-15T08:50:00;12.40;73.30
3548;DHT22;1788;49.400;11.092;2024-02-15T08:52:27;12.40;73.30
3548;DHT22;1788;49.400;11.092;2024-02-15T08:54:53;12.40;73.30
3548;DHT22;1788;49.400;11.092;2024-02-15T08:57:20;12.40;73.30
3548;DHT22;1788;49.400;11.092;2024-02-15T08:59:46;12.50;73.50
3548;DHT22;1788;49.400;11.092;2024-02-15T09:02:13;12.50;73.40
3548;DHT22;1788;49.400;11.092;2024-02-15T09:04:40;12.50;73.40
3548;DHT22;1788;49.400;11.092;2024-02-15T09:07:06;12.50;73.30
3548;DHT22;1788;49.400;11.092;2024-02-15T09:09:33;12.60;73.40
3548;DHT22;1788;49.400;11.092;2024-02-15T09:14:27;12.70;73.40
3548;DHT22;1788;49.400;11.092;2024-02-15T09:16:53;12.60;73.20
3548;DHT22;1788;49.400;11.092;2024-02-15T09:19:21;12.80;73.40
3548;DHT22;1788;49.400;11.092;2024-02-15T09:21:47;12.70;73.30
3548;DHT22;1788;49.400;11.092;2024-02-15T09:24:15;12.80;73.30
3548;DHT22;1788;49.400;11.092;2024-02-15T09:26:42;12.80;73.30
3548;DHT22;1788;49.400;11.092;2024-02-15T09:29:08;12.90;73.30
3548;DHT22;1788;49.400;11.092;2024-02-15T09:31:37;12.90;73.30
3548;DHT22;1788;49.400;11.092;2024-02-15T09:34:03;13.00;73.30
3548;DHT22;1788;49.400;11.092;2024-02-15T09:36:33;13.00;73.30
3548;DHT22;1788;49.400;11.092;2024-02-15T09:38:56;13.10;73.20
3548;DHT22;1788;49.400;11.092;2024-02-15T09:41:23;13.20;73.30
3548;DHT22;1788;49.400;11.092;2024-02-15T09:43:50;13.30;73.30
3548;DHT22;1788;49.400;11.092;2024-02-15T09:46:17;13.30;73.20
3548;DHT22;1788;49.400;11.092;2024-02-15T09:48:45;13.30;73.00
3548;DHT22;1788;49.400;11.092;2024-02-15T09:51:11;13.40;73.00
3548;DHT22;1788;49.400;11.092;2024-02-15T09:53:38;13.40;72.90
3548;DHT22;1788;49.400;11.092;2024-02-15T09:56:05;13.50;72.90
3548;DHT22;1788;49.400;11.092;2024-02-15T09:58:33;13.60;73.70
3548;DHT22;1788;49.400;11.092;2024-02-15T10:01:01;13.70;72.80
3548;DHT22;1788;49.400;11.092;2024-02-15T10:03:27;13.80;72.80
3548;DHT22;1788;49.400;11.092;2024-02-15T10:05:54;13.80;72.60
3548;DHT22;1788;49.400;11.092;2024-02-15T10:08:21;13.90;72.50
3548;DHT22;1788;49.400;11.092;2024-02-15T10:10:47;14.00;72.60
3548;DHT22;1788;49.400;11.092;2024-02-15T10:13:16;14.10;72.40
3548;DHT22;1788;49.400;11.092;2024-02-15T10:15:41;14.10;72.40
3548;DHT22;1788;49.400;11.092;2024-02-15T10:18:08;14.20;72.20
3548;DHT22;1788;49.400;11.092;2024-02-15T10:20:36;14.30;72.10
3548;DHT22;1788;49.400;11.092;2024-02-15T10:25:29;14.50;71.90
3548;DHT22;1788;49.400;11.092;2024-02-15T10:30:23;14.60;71.40
3548;DHT22;1788;49.400;11.092;2024-02-15T10:32:49;14.70;71.30
3548;DHT22;1788;49.400;11.092;2024-02-15T10:37:42;14.80;70.90
3548;DHT22;1788;49.400;11.092;2024-02-15T10:40:09;14.90;70.70
3548;DHT22;1788;49.400;11.092;2024-02-15T10:42:36;15.00;70.70
3548;DHT22;1788;49.400;11.092;2024-02-15T10:45:03;15.20;70.90
3548;DHT22;1788;49.400;11.092;2024-02-15T10:47:30;15.30;70.40
3548;DHT22;1788;49.400;11.092;2024-02-15T10:49:57;15.50;70.60
3548;DHT22;1788;49.400;11.092;2024-02-15T10:52:24;15.40;69.60
3548;DHT22;1788;49.400;11.092;2024-02-15T10:57:20;15.60;69.20
3548;DHT22;1788;49.400;11.092;2024-02-15T10:59:48;15.60;68.80
3548;DHT22;1788;49.400;11.092;2024-02-15T11:04:39;15.80;68.50
3548;DHT22;1788;49.400;11.092;2024-02-15T11:07:06;15.80;68.30
3548;DHT22;1788;49.400;11.092;2024-02-15T11:09:33;15.90;68.00
3548;DHT22;1788;49.400;11.092;2024-02-15T11:12:00;15.90;67.80
3548;DHT22;1788;49.400;11.092;2024-02-15T11:16:53;16.00;67.40
3548;DHT22;1788;49.400;11.092;2024-02-15T11:29:07;16.30;66.30
3548;DHT22;1788;49.400;11.092;2024-02-15T11:34:32;16.50;65.80
3548;DHT22;1788;49.400;11.092;2024-02-15T11:38:56;16.60;65.40
3548;DHT22;1788;49.400;11.092;2024-02-15T11:41:22;16.60;65.40
3548;DHT22;1788;49.400;11.092;2024-02-15T11:43:52;17.00;65.40
3548;DHT22;1788;49.400;11.092;2024-02-15T11:46:19;17.00;65.00
3548;DHT22;1788;49.400;11.092;2024-02-15T11:48:46;17.20;64.70
3548;DHT22;1788;49.400;11.092;2024-02-15T11:53:39;17.90;63.90
3548;DHT22;1788;49.400;11.092;2024-02-15T11:56:06;17.90;63.90
3548;DHT22;1788;49.400;11.092;2024-02-15T11:58:33;18.30;63.60
3548;DHT22;1788;49.400;11.092;2024-02-15T12:01:00;18.60;63.20
3548;DHT22;1788;49.400;11.092;2024-02-15T12:03:26;19.00;62.60
3548;DHT22;1788;49.400;11.092;2024-02-15T12:05:53;19.40;61.90
3548;DHT22;1788;49.400;11.092;2024-02-15T12:08:19;19.80;61.00
3548;DHT22;1788;49.400;11.092;2024-02-15T12:10:56;20.20;60.10
3548;DHT22;1788;49.400;11.092;2024-02-15T12:13:17;20.50;59.50
3548;DHT22;1788;49.400;11.092;2024-02-15T12:15:40;20.80;59.00
3548;DHT22;1788;49.400;11.092;2024-02-15T12:20:34;21.20;57.50
3548;DHT22;1788;49.400;11.092;2024-02-15T12:23:01;21.40;57.00
3548;DHT22;1788;49.400;11.092;2024-02-15T12:25:27;21.50;56.50
3548;DHT22;1788;49.400;11.092;2024-02-15T12:27:55;21.80;55.80
3548;DHT22;1788;49.400;11.092;2024-02-15T12:30:23;21.70;55.70
3548;DHT22;1788;49.400;11.092;2024-02-15T12:32:49;22.10;55.40
3548;DHT22;1788;49.400;11.092;2024-02-15T12:35:18;22.40;54.80
3548;DHT22;1788;49.400;11.092;2024-02-15T12:37:44;22.60;54.10
3548;DHT22;1788;49.400;11.092;2024-02-15T12:42:38;23.10;53.00
3548;DHT22;1788;49.400;11.092;2024-02-15T12:45:05;23.30;52.50
3548;DHT22;1788;49.400;11.092;2024-02-15T12:47:31;23.30;51.80
3548;DHT22;1788;49.400;11.092;2024-02-15T12:50:12;23.20;51.50
3548;DHT22;1788;49.400;11.092;2024-02-15T12:55:05;23.40;50.90
3548;DHT22;1788;49.400;11.092;2024-02-15T12:57:20;23.00;50.50
3548;DHT22;1788;49.400;11.092;2024-02-15T12:59:46;22.70;50.60
3548;DHT22;1788;49.400;11.092;2024-02-15T13:02:13;22.30;50.70
3548;DHT22;1788;49.400;11.092;2024-02-15T13:04:41;22.00;50.90
3548;DHT22;1788;49.400;11.092;2024-02-15T13:07:08;21.70;51.00
3548;DHT22;1788;49.400;11.092;2024-02-15T13:09:34;21.40;51.00
3548;DHT22;1788;49.400;11.092;2024-02-15T13:12:01;21.10;51.10
3548;DHT22;1788;49.400;11.092;2024-02-15T13:14:29;20.70;51.20
3548;DHT22;1788;49.400;11.092;2024-02-15T13:16:56;20.60;51.10
3548;DHT22;1788;49.400;11.092;2024-02-15T13:19:23;20.30;51.30
3548;DHT22;1788;49.400;11.092;2024-02-15T13:21:51;20.30;51.30
3548;DHT22;1788;49.400;11.092;2024-02-15T13:24:17;20.30;51.40
3548;DHT22;1788;49.400;11.092;2024-02-15T13:26:44;20.20;51.30
3548;DHT22;1788;49.400;11.092;2024-02-15T13:29:11;20.00;51.20
3548;DHT22;1788;49.400;11.092;2024-02-15T13:31:37;19.80;51.30
3548;DHT22;1788;49.400;11.092;2024-02-15T13:34:04;19.80;51.50
3548;DHT22;1788;49.400;11.092;2024-02-15T13:36:31;19.60;51.90
3548;DHT22;1788;49.400;11.092;2024-02-15T13:38:58;19.60;51.60
3548;DHT22;1788;49.400;11.092;2024-02-15T13:41:26;19.50;51.60
3548;DHT22;1788;49.400;11.092;2024-02-15T13:43:53;19.50;51.80
3548;DHT22;1788;49.400;11.092;2024-02-15T13:46:20;19.50;51.80
3548;DHT22;1788;49.400;11.092;2024-02-15T13:48:48;19.40;51.80
3548;DHT22;1788;49.400;11.092;2024-02-15T13:51:14;19.40;51.80
3548;DHT22;1788;49.400;11.092;2024-02-15T13:53:42;19.30;51.70
3548;DHT22;1788;49.400;11.092;2024-02-15T13:56:08;19.30;51.70
3548;DHT22;1788;49.400;11.092;2024-02-15T13:58:35;19.30;51.70
3548;DHT22;1788;49.400;11.092;2024-02-15T14:01:01;19.30;51.70
3548;DHT22;1788;49.400;11.092;2024-02-15T14:03:29;19.20;51.60
3548;DHT22;1788;49.400;11.092;2024-02-15T14:05:56;19.50;51.60
3548;DHT22;1788;49.400;11.092;2024-02-15T14:08:23;19.40;51.50
3548;DHT22;1788;49.400;11.092;2024-02-15T14:10:49;19.70;51.30
3548;DHT22;1788;49.400;11.092;2024-02-15T14:13:17;19.80;51.10
3548;DHT22;1788;49.400;11.092;2024-02-15T14:15:44;20.00;51.10
3548;DHT22;1788;49.400;11.092;2024-02-15T14:18:11;20.00;50.80
3548;DHT22;1788;49.400;11.092;2024-02-15T14:20:38;20.10;50.70
3548;DHT22;1788;49.400;11.092;2024-02-15T14:23:05;20.10;50.50
3548;DHT22;1788;49.400;11.092;2024-02-15T14:25:31;20.20;50.30
3548;DHT22;1788;49.400;11.092;2024-02-15T14:27:58;20.20;50.30
3548;DHT22;1788;49.400;11.092;2024-02-15T14:30:26;20.00;50.40
3548;DHT22;1788;49.400;11.092;2024-02-15T14:32:54;20.00;49.90
3548;DHT22;1788;49.400;11.092;2024-02-15T14:35:21;20.00;49.90
3548;DHT22;1788;49.400;11.092;2024-02-15T14:37:47;19.90;49.80
3548;DHT22;1788;49.400;11.092;2024-02-15T14:40:14;19.90;49.80
3548;DHT22;1788;49.400;11.092;2024-02-15T14:42:41;19.70;50.10
3548;DHT22;1788;49.400;11.092;2024-02-15T14:45:09;19.60;49.60
3548;DHT22;1788;49.400;11.092;2024-02-15T14:47:38;19.50;50.30
3548;DHT22;1788;49.400;11.092;2024-02-15T14:50:05;19.50;49.70
3548;DHT22;1788;49.400;11.092;2024-02-15T14:52:33;19.60;49.60
3548;DHT22;1788;49.400;11.092;2024-02-15T14:54:59;19.80;49.50
3548;DHT22;1788;49.400;11.092;2024-02-15T14:57:26;20.00;49.30
3548;DHT22;1788;49.400;11.092;2024-02-15T14:59:52;20.30;49.10
3548;DHT22;1788;49.400;11.092;2024-02-15T15:02:19;20.70;48.80
3548;DHT22;1788;49.400;11.092;2024-02-15T15:04:46;20.90;48.40
3548;DHT22;1788;49.400;11.092;2024-02-15T15:07:13;21.20;48.10
3548;DHT22;1788;49.400;11.092;2024-02-15T15:09:40;21.40;48.00
3548;DHT22;1788;49.400;11.092;2024-02-15T15:12:07;21.40;47.70
3548;DHT22;1788;49.400;11.092;2024-02-15T15:14:34;21.50;47.70
3548;DHT22;1788;49.400;11.092;2024-02-15T15:17:01;21.20;47.80
3548;DHT22;1788;49.400;11.092;2024-02-15T15:19:28;21.20;47.80
3548;DHT22;1788;49.400;11.092;2024-02-15T15:21:56;21.00;47.90
3548;DHT22;1788;49.400;11.092;2024-02-15T15:24:24;20.80;48.10
3548;DHT22;1788;49.400;11.092;2024-02-15T15:26:52;20.20;48.40
3548;DHT22;1788;49.400;11.092;2024-02-15T15:29:18;20.20;48.40
3548;DHT22;1788;49.400;11.092;2024-02-15T15:31:45;19.90;48.60
3548;DHT22;1788;49.400;11.092;2024-02-15T15:34:12;19.70;48.90
3548;DHT22;1788;49.400;11.092;2024-02-15T15:36:38;19.50;49.10
3548;DHT22;1788;49.400;11.092;2024-02-15T15:39:05;19.30;49.30
3548;DHT22;1788;49.400;11.092;2024-02-15T15:41:32;19.10;49.40
3548;DHT22;1788;49.400;11.092;2024-02-15T15:43:59;18.80;49.40
3548;DHT22;1788;49.400;11.092;2024-02-15T15:46:26;18.40;49.60
3548;DHT22;1788;49.400;11.092;2024-02-15T15:48:53;18.40;49.70
3548;DHT22;1788;49.400;11.092;2024-02-15T15:51:20;18.30;50.00
3548;DHT22;1788;49.400;11.092;2024-02-15T15:53:46;18.10;50.10
3548;DHT22;1788;49.400;11.092;2024-02-15T15:56:13;18.00;50.30
3548;DHT22;1788;49.400;11.092;2024-02-15T15:58:39;17.90;50.40
3548;DHT22;1788;49.400;11.092;2024-02-15T16:01:09;17.60;50.90
3548;DHT22;1788;49.400;11.092;2024-02-15T16:03:33;17.60;50.80
3548;DHT22;1788;49.400;11.092;2024-02-15T16:06:02;17.40;51.20
3548;DHT22;1788;49.400;11.092;2024-02-15T16:08:29;17.40;51.20
3548;DHT22;1788;49.400;11.092;2024-02-15T16:10:56;17.30;51.30
3548;DHT22;1788;49.400;11.092;2024-02-15T16:13:22;17.20;51.40
3548;DHT22;1788;49.400;11.092;2024-02-15T16:18:16;17.00;51.70
3548;DHT22;1788;49.400;11.092;2024-02-15T16:20:43;16.90;51.80
3548;DHT22;1788;49.400;11.092;2024-02-15T16:23:10;16.80;51.90
3548;DHT22;1788;49.400;11.092;2024-02-15T16:25:36;16.80;52.10
3548;DHT22;1788;49.400;11.092;2024-02-15T16:28:04;16.70;52.30
3548;DHT22;1788;49.400;11.092;2024-02-15T16:30:31;16.60;52.40
3548;DHT22;1788;49.400;11.092;2024-02-15T16:32:57;16.50;52.40
3548;DHT22;1788;49.400;11.092;2024-02-15T16:35:24;16.50;52.20
3548;DHT22;1788;49.400;11.092;2024-02-15T16:37:50;16.40;52.70
3548;DHT22;1788;49.400;11.092;2024-02-15T16:40:17;16.30;52.80
3548;DHT22;1788;49.400;11.092;2024-02-15T16:42:44;16.10;53.00